sensor_id;sensor_type;location;lat;lon;timestamp;temperature;humidity
67358;HTU21D;54240;51.096;5.878;2023-05-21T00:01:03;14.91;-6.00
67358;HTU21D;54240;51.096;5.878;2023-05-21T00:03:31;14.88;-6.00
67358;HTU21D;54240;51.096;5.878;2023-05-21T00:05:57;14.89;-6.00
67358;HTU21D;54240;51.096;5.878;2023-05-21T00:08:26;14.88;-6.00
67358;HTU21D;54240;51.096;5.878;2023-05-21T00:10:52;14.86;-6.00
67358;HTU21D;54240;51.096;5.878;2023-05-21T00:13:18;14.84;-6.00
67358;HTU21D;54240;51.096;5.878;2023-05-21T00:15:44;14.83;-6.00
67358;HTU21D;54240;51.096;5.878;2023-05-21T00:18:10;14.82;-6.00
67358;HTU21D;54240;51.096;5.878;2023-05-21T00:20:36;14.78;-6.00
67358;HTU21D;54240;51.096;5.878;2023-05-21T00:23:03;14.73;-6.00
67358;HTU21D;54240;51.096;5.878;2023-05-21T00:25:30;14.73;-6.00
67358;HTU21D;54240;51.096;5.878;2023-05-21T00:27:56;14.72;-6.00
67358;HTU21D;54240;51.096;5.878;2023-05-21T00:30:22;14.70;-6.00
67358;HTU21D;54240;51.096;5.878;2023-05-21T00:32:48;14.68;-6.00
67358;HTU21D;54240;51.096;5.878;2023-05-21T00:35:15;14.66;-6.00
67358;HTU21D;54240;51.096;5.878;2023-05-21T00:37:42;14.65;-6.00
67358;HTU21D;54240;51.096;5.878;2023-05-21T00:40:09;14.60;-6.00
67358;HTU21D;54240;51.096;5.878;2023-05-21T00:42:36;14.56;-6.00
67358;HTU21D;54240;51.096;5.878;2023-05-21T00:45:06;14.54;-6.00
67358;HTU21D;54240;51.096;5.878;2023-05-21T00:47:34;14.55;-6.00
67358;HTU21D;54240;51.096;5.878;2023-05-21T00:50:02;14.53;-6.00
67358;HTU21D;54240;51.096;5.878;2023-05-21T00:52:28;14.49;-6.00
67358;HTU21D;54240;51.096;5.878;2023-05-21T00:54:54;14.44;-6.00
67358;HTU21D;54240;51.096;5.878;2023-05-21T00:57:22;14.41;-6.00
67358;HTU21D;54240;51.096;5.878;2023-05-21T00:59:51;14.40;-6.00
67358;HTU21D;54240;51.096;5.878;2023-05-21T01:02:18;14.40;-6.00
67358;HTU21D;54240;51.096;5.878;2023-05-21T01:04:44;14.38;-6.00
67358;HTU21D;54240;51.096;5.878;2023-05-21T01:07:11;14.35;-6.00
67358;HTU21D;54240;51.096;5.878;2023-05-21T01:09:39;14.35;-6.00
67358;HTU21D;54240;51.096;5.878;2023-05-21T01:12:07;14.34;-6.00
67358;HTU21D;54240;51.096;5.878;2023-05-21T01:14:35;14.35;-6.00
67358;HTU21D;54240;51.096;5.878;2023-05-21T01:17:04;14.27;-6.00
67358;HTU21D;54240;51.096;5.878;2023-05-21T01:19:32;14.32;-6.00
67358;HTU21D;54240;51.096;5.878;2023-05-21T01:22:04;14.32;-6.00
67358;HTU21D;54240;51.096;5.878;2023-05-21T01:24:31;14.29;-6.00
67358;HTU21D;54240;51.096;5.878;2023-05-21T01:27:00;14.27;-6.00
67358;HTU21D;54240;51.096;5.878;2023-05-21T01:29:26;14.25;-6.00
67358;HTU21D;54240;51.096;5.878;2023-05-21T01:31:58;14.24;-6.00
67358;HTU21D;54240;51.096;5.878;2023-05-21T01:34:39;14.23;-6.00
67358;HTU21D;54240;51.096;5.878;2023-05-21T01:37:20;14.23;-6.00
67358;HTU21D;54240;51.096;5.878;2023-05-21T01:39:56;14.33;-6.00
67358;HTU21D;54240;51.096;5.878;2023-05-21T01:42:24;14.36;-6.00
67358;HTU21D;54240;51.096;5.878;2023-05-21T01:44:55;14.37;-6.00
67358;HTU21D;54240;51.096;5.878;2023-05-21T01:47:25;14.27;-6.00
67358;HTU21D;54240;51.096;5.878;2023-05-21T01:49:55;14.20;-6.00
67358;HTU21D;54240;51.096;5.878;2023-05-21T01:52:21;14.17;-6.00
67358;HTU21D;54240;51.096;5.878;2023-05-21T01:54:47;14.13;-6.00
67358;HTU21D;54240;51.096;5.878;2023-05-21T01:57:16;14.13;-6.00
67358;HTU21D;54240;51.096;5.878;2023-05-21T01:59:43;14.12;-6.00
67358;HTU21D;54240;51.096;5.878;2023-05-21T02:02:10;14.25;-6.00
67358;HTU21D;54240;51.096;5.878;2023-05-21T02:04:37;14.23;-6.00
67358;HTU21D;54240;51.096;5.878;2023-05-21T02:07:06;14.24;-6.00
67358;HTU21D;54240;51.096;5.878;2023-05-21T02:09:32;14.24;-6.00
67358;HTU21D;54240;51.096;5.878;2023-05-21T02:11:58;14.27;-6.00
67358;HTU21D;54240;51.096;5.878;2023-05-21T02:14:24;14.23;-6.00
67358;HTU21D;54240;51.096;5.878;2023-05-21T02:16:50;14.25;-6.00
67358;HTU21D;54240;51.096;5.878;2023-05-21T02:19:17;14.24;-6.00
67358;HTU21D;54240;51.096;5.878;2023-05-21T02:21:43;14.25;-6.00
67358;HTU21D;54240;51.096;5.878;2023-05-21T02:24:10;14.21;-6.00
67358;HTU21D;54240;51.096;5.878;2023-05-21T02:26:37;14.24;-6.00
67358;HTU21D;54240;51.096;5.878;2023-05-21T02:29:03;14.24;-6.00
67358;HTU21D;54240;51.096;5.878;2023-05-21T02:31:29;14.24;-6.00
67358;HTU21D;54240;51.096;5.878;2023-05-21T02:33:57;14.20;-6.00
67358;HTU21D;54240;51.096;5.878;2023-05-21T02:36:24;14.20;-6.00
67358;HTU21D;54240;51.096;5.878;2023-05-21T02:38:50;14.11;-6.00
67358;HTU21D;54240;51.096;5.878;2023-05-21T02:41:16;14.07;-6.00
67358;HTU21D;54240;51.096;5.878;2023-05-21T02:43:42;14.06;-6.00
67358;HTU21D;54240;51.096;5.878;2023-05-21T02:46:08;14.09;-6.00
67358;HTU21D;54240;51.096;5.878;2023-05-21T02:48:34;14.09;-6.00
67358;HTU21D;54240;51.096;5.878;2023-05-21T02:51:00;14.08;-6.00
67358;HTU21D;54240;51.096;5.878;2023-05-21T02:53:26;13.99;-6.00
67358;HTU21D;54240;51.096;5.878;2023-05-21T02:55:52;14.09;-6.00
67358;HTU21D;54240;51.096;5.878;2023-05-21T02:58:18;14.12;-6.00
67358;HTU21D;54240;51.096;5.878;2023-05-21T03:00:48;14.10;-6.00
67358;HTU21D;54240;51.096;5.878;2023-05-21T03:03:14;14.13;-6.00
67358;HTU21D;54240;51.096;5.878;2023-05-21T03:05:46;14.17;-6.00
67358;HTU21D;54240;51.096;5.878;2023-05-21T03:08:13;14.17;-6.00
67358;HTU21D;54240;51.096;5.878;2023-05-21T03:10:39;14.13;-6.00
67358;HTU21D;54240;51.096;5.878;2023-05-21T03:13:06;14.09;-6.00
67358;HTU21D;54240;51.096;5.878;2023-05-21T03:15:32;14.04;-6.00
67358;HTU21D;54240;51.096;5.878;2023-05-21T03:17:58;13.98;-6.00
67358;HTU21D;54240;51.096;5.878;2023-05-21T03:20:25;13.94;-6.00
67358;HTU21D;54240;51.096;5.878;2023-05-21T03:22:52;13.95;-6.00
67358;HTU21D;54240;51.096;5.878;2023-05-21T03:25:22;13.93;-6.00
67358;HTU21D;54240;51.096;5.878;2023-05-21T03:27:51;13.89;-6.00
67358;HTU21D;54240;51.096;5.878;2023-05-21T03:30:42;13.81;-6.00
67358;HTU21D;54240;51.096;5.878;2023-05-21T03:33:29;13.82;-6.00
67358;HTU21D;54240;51.096;5.878;2023-05-21T03:35:56;13.84;-6.00
67358;HTU21D;54240;51.096;5.878;2023-05-21T03:38:24;13.86;-6.00
67358;HTU21D;54240;51.096;5.878;2023-05-21T03:40:50;13.84;-6.00
67358;HTU21D;54240;51.096;5.878;2023-05-21T03:43:16;13.78;-6.00
67358;HTU21D;54240;51.096;5.878;2023-05-21T03:45:42;13.74;-6.00
67358;HTU21D;54240;51.096;5.878;2023-05-21T03:48:27;13.78;-6.00
67358;HTU21D;54240;51.096;5.878;2023-05-21T03:50:57;13.80;-6.00
67358;HTU21D;54240;51.096;5.878;2023-05-21T03:53:24;13.69;-6.00
67358;HTU21D;54240;51.096;5.878;2023-05-21T03:55:50;13.74;-6.00
67358;HTU21D;54240;51.096;5.878;2023-05-21T03:58:22;13.77;-6.00
67358;HTU21D;54240;51.096;5.878;2023-05-21T04:00:48;13.81;-6.00
67358;HTU21D;54240;51.096;5.878;2023-05-21T04:03:17;13.79;-6.00
67358;HTU21D;54240;51.096;5.878;2023-05-21T04:05:44;13.79;-6.00
67358;HTU21D;54240;51.096;5.878;2023-05-21T04:08:11;13.78;-6.00
67358;HTU21D;54240;51.096;5.878;2023-05-21T04:10:38;13.80;-6.00
67358;HTU21D;54240;51.096;5.878;2023-05-21T04:13:04;13.84;-6.00
67358;HTU21D;54240;51.096;5.878;2023-05-21T04:15:30;13.84;-6.00
67358;HTU21D;54240;51.096;5.878;2023-05-21T04:17:56;13.84;-6.00
67358;HTU21D;54240;51.096;5.878;2023-05-21T04:20:25;13.85;-6.00
67358;HTU21D;54240;51.096;5.878;2023-05-21T04:22:50;13.93;-6.00
67358;HTU21D;54240;51.096;5.878;2023-05-21T04:25:17;13.99;-6.00
67358;HTU21D;54240;51.096;5.878;2023-05-21T04:27:45;13.95;-6.00
67358;HTU21D;54240;51.096;5.878;2023-05-21T04:30:16;13.99;-6.00
67358;HTU21D;54240;51.096;5.878;2023-05-21T04:32:45;14.08;-6.00
67358;HTU21D;54240;51.096;5.878;2023-05-21T04:35:13;14.09;-6.00
67358;HTU21D;54240;51.096;5.878;2023-05-21T04:37:40;14.14;-6.00
67358;HTU21D;54240;51.096;5.878;2023-05-21T04:40:11;14.22;-6.00
67358;HTU21D;54240;51.096;5.878;2023-05-21T04:42:46;14.18;-6.00
67358;HTU21D;54240;51.096;5.878;2023-05-21T04:45:16;14.23;-6.00
67358;HTU21D;54240;51.096;5.878;2023-05-21T04:47:44;14.37;-6.00
67358;HTU21D;54240;51.096;5.878;2023-05-21T04:50:10;14.30;-6.00
67358;HTU21D;54240;51.096;5.878;2023-05-21T04:52:38;14.34;-6.00
67358;HTU21D;54240;51.096;5.878;2023-05-21T04:55:06;14.37;-6.00
67358;HTU21D;54240;51.096;5.878;2023-05-21T04:57:32;14.41;-6.00
67358;HTU21D;54240;51.096;5.878;2023-05-21T04:59:59;14.33;-6.00
67358;HTU21D;54240;51.096;5.878;2023-05-21T05:02:26;14.43;-6.00
67358;HTU21D;54240;51.096;5.878;2023-05-21T05:04:52;14.45;-6.00
67358;HTU21D;54240;51.096;5.878;2023-05-21T05:07:18;14.43;-6.00
67358;HTU21D;54240;51.096;5.878;2023-05-21T05:09:44;14.55;-6.00
67358;HTU21D;54240;51.096;5.878;2023-05-21T05:12:10;14.60;-6.00
67358;HTU21D;54240;51.096;5.878;2023-05-21T05:14:36;14.68;-6.00
67358;HTU21D;54240;51.096;5.878;2023-05-21T05:17:03;14.58;-6.00
67358;HTU21D;54240;51.096;5.878;2023-05-21T05:19:30;14.55;-6.00
67358;HTU21D;54240;51.096;5.878;2023-05-21T05:21:57;14.41;-6.00
67358;HTU21D;54240;51.096;5.878;2023-05-21T05:24:23;14.56;-6.00
67358;HTU21D;54240;51.096;5.878;2023-05-21T05:26:49;14.59;-6.00
67358;HTU21D;54240;51.096;5.878;2023-05-21T05:29:16;14.63;-6.00
67358;HTU21D;54240;51.096;5.878;2023-05-21T05:31:42;14.67;-6.00
67358;HTU21D;54240;51.096;5.878;2023-05-21T05:34:08;14.67;-6.00
67358;HTU21D;54240;51.096;5.878;2023-05-21T05:36:34;14.79;-6.00
67358;HTU21D;54240;51.096;5.878;2023-05-21T05:39:02;14.82;-6.00
67358;HTU21D;54240;51.096;5.878;2023-05-21T05:41:28;14.83;-6.00
67358;HTU21D;54240;51.096;5.878;2023-05-21T05:43:54;14.82;-6.00
67358;HTU21D;54240;51.096;5.878;2023-05-21T05:46:24;14.80;-6.00
67358;HTU21D;54240;51.096;5.878;2023-05-21T05:48:50;14.72;-6.00
67358;HTU21D;54240;51.096;5.878;2023-05-21T05:51:16;14.86;-6.00
67358;HTU21D;54240;51.096;5.878;2023-05-21T05:53:42;14.87;-6.00
67358;HTU21D;54240;51.096;5.878;2023-05-21T05:56:09;14.98;-6.00
67358;HTU21D;54240;51.096;5.878;2023-05-21T05:58:35;15.25;-6.00
67358;HTU21D;54240;51.096;5.878;2023-05-21T06:01:12;15.24;-6.00
67358;HTU21D;54240;51.096;5.878;2023-05-21T06:03:39;15.28;-6.00
67358;HTU21D;54240;51.096;5.878;2023-05-21T06:06:17;15.43;-6.00
67358;HTU21D;54240;51.096;5.878;2023-05-21T06:08:43;15.49;-6.00
67358;HTU21D;54240;51.096;5.878;2023-05-21T06:11:11;15.69;-6.00
67358;HTU21D;54240;51.096;5.878;2023-05-21T06:13:37;15.82;-6.00
67358;HTU21D;54240;51.096;5.878;2023-05-21T06:16:05;15.83;-6.00
67358;HTU21D;54240;51.096;5.878;2023-05-21T06:18:32;15.90;-6.00
67358;HTU21D;54240;51.096;5.878;2023-05-21T06:20:58;16.02;-6.00
67358;HTU21D;54240;51.096;5.878;2023-05-21T06:23:25;15.98;-6.00
67358;HTU21D;54240;51.096;5.878;2023-05-21T06:25:51;16.14;-6.00
67358;HTU21D;54240;51.096;5.878;2023-05-21T06:28:18;16.13;-6.00
67358;HTU21D;54240;51.096;5.878;2023-05-21T06:30:45;16.31;-6.00
67358;HTU21D;54240;51.096;5.878;2023-05-21T06:33:11;16.57;-6.00
67358;HTU21D;54240;51.096;5.878;2023-05-21T06:35:38;16.74;-6.00
67358;HTU21D;54240;51.096;5.878;2023-05-21T06:38:07;16.59;-6.00
67358;HTU21D;54240;51.096;5.878;2023-05-21T06:40:34;16.67;-6.00
67358;HTU21D;54240;51.096;5.878;2023-05-21T06:43:00;16.72;-6.00
67358;HTU21D;54240;51.096;5.878;2023-05-21T06:45:35;16.80;-6.00
67358;HTU21D;54240;51.096;5.878;2023-05-21T06:48:11;16.65;-6.00
67358;HTU21D;54240;51.096;5.878;2023-05-21T06:50:38;16.17;-6.00
67358;HTU21D;54240;51.096;5.878;2023-05-21T06:53:08;16.06;-6.00
67358;HTU21D;54240;51.096;5.878;2023-05-21T06:55:34;16.34;-6.00
67358;HTU21D;54240;51.096;5.878;2023-05-21T06:58:21;16.61;-6.00
67358;HTU21D;54240;51.096;5.878;2023-05-21T07:00:47;16.61;-6.00
67358;HTU21D;54240;51.096;5.878;2023-05-21T07:03:14;16.60;-6.00
67358;HTU21D;54240;51.096;5.878;2023-05-21T07:05:43;16.48;-6.00
67358;HTU21D;54240;51.096;5.878;2023-05-21T07:08:09;16.71;-6.00
67358;HTU21D;54240;51.096;5.878;2023-05-21T07:10:36;16.63;-6.00
67358;HTU21D;54240;51.096;5.878;2023-05-21T07:13:01;16.78;-6.00
67358;HTU21D;54240;51.096;5.878;2023-05-21T07:15:28;16.94;-6.00
67358;HTU21D;54240;51.096;5.878;2023-05-21T07:17:54;16.96;-6.00
67358;HTU21D;54240;51.096;5.878;2023-05-21T07:20:20;16.88;-6.00
67358;HTU21D;54240;51.096;5.878;2023-05-21T07:22:49;16.96;-6.00
67358;HTU21D;54240;51.096;5.878;2023-05-21T07:25:16;17.20;-6.00
67358;HTU21D;54240;51.096;5.878;2023-05-21T07:27:43;17.31;-6.00
67358;HTU21D;54240;51.096;5.878;2023-05-21T07:30:09;17.31;-6.00
67358;HTU21D;54240;51.096;5.878;2023-05-21T07:32:36;17.18;-6.00
67358;HTU21D;54240;51.096;5.878;2023-05-21T07:35:02;17.28;-6.00
67358;HTU21D;54240;51.096;5.878;2023-05-21T07:37:29;17.30;-6.00
67358;HTU21D;54240;51.096;5.878;2023-05-21T07:39:56;17.33;-6.00
67358;HTU21D;54240;51.096;5.878;2023-05-21T07:42:24;17.40;-6.00
67358;HTU21D;54240;51.096;5.878;2023-05-21T07:44:52;17.56;-6.00
67358;HTU21D;54240;51.096;5.878;2023-05-21T07:47:17;17.79;-6.00
67358;HTU21D;54240;51.096;5.878;2023-05-21T07:49:44;17.68;-6.00
67358;HTU21D;54240;51.096;5.878;2023-05-21T07:52:10;17.44;-6.00
67358;HTU21D;54240;51.096;5.878;2023-05-21T07:54:37;17.60;-6.00
67358;HTU21D;54240;51.096;5.878;2023-05-21T07:57:04;17.60;-6.00
67358;HTU21D;54240;51.096;5.878;2023-05-21T07:59:48;17.78;-6.00
67358;HTU21D;54240;51.096;5.878;2023-05-21T08:02:14;17.87;-6.00
67358;HTU21D;54240;51.096;5.878;2023-05-21T08:04:45;17.98;-6.00
67358;HTU21D;54240;51.096;5.878;2023-05-21T08:07:13;18.05;-6.00
67358;HTU21D;54240;51.096;5.878;2023-05-21T08:09:45;18.34;-6.00
67358;HTU21D;54240;51.096;5.878;2023-05-21T08:12:12;18.85;-6.00
67358;HTU21D;54240;51.096;5.878;2023-05-21T08:14:43;19.17;-6.00
67358;HTU21D;54240;51.096;5.878;2023-05-21T08:17:11;19.71;-6.00
67358;HTU21D;54240;51.096;5.878;2023-05-21T08:19:37;20.14;-6.00
67358;HTU21D;54240;51.096;5.878;2023-05-21T08:22:04;20.48;-6.00
67358;HTU21D;54240;51.096;5.878;2023-05-21T08:24:32;20.47;-6.00
67358;HTU21D;54240;51.096;5.878;2023-05-21T08:26:58;20.40;-6.00
67358;HTU21D;54240;51.096;5.878;2023-05-21T08:29:24;20.55;-6.00
67358;HTU21D;54240;51.096;5.878;2023-05-21T08:31:52;20.59;-6.00
67358;HTU21D;54240;51.096;5.878;2023-05-21T08:34:18;19.94;-6.00
67358;HTU21D;54240;51.096;5.878;2023-05-21T08:36:52;20.14;-6.00
67358;HTU21D;54240;51.096;5.878;2023-05-21T08:39:44;20.10;-6.00
67358;HTU21D;54240;51.096;5.878;2023-05-21T08:45:11;20.46;-6.00
67358;HTU21D;54240;51.096;5.878;2023-05-21T08:47:41;20.80;-6.00
67358;HTU21D;54240;51.096;5.878;2023-05-21T08:50:16;21.10;-6.00
67358;HTU21D;54240;51.096;5.878;2023-05-21T08:52:46;21.03;-6.00
67358;HTU21D;54240;51.096;5.878;2023-05-21T08:55:17;21.10;-6.00
67358;HTU21D;54240;51.096;5.878;2023-05-21T08:57:43;21.68;-6.00
67358;HTU21D;54240;51.096;5.878;2023-05-21T09:00:12;22.02;-6.00
67358;HTU21D;54240;51.096;5.878;2023-05-21T09:02:39;21.54;-6.00
67358;HTU21D;54240;51.096;5.878;2023-05-21T09:05:09;21.67;-6.00
67358;HTU21D;54240;51.096;5.878;2023-05-21T09:08:01;22.02;-6.00
67358;HTU21D;54240;51.096;5.878;2023-05-21T09:10:51;22.23;-6.00
67358;HTU21D;54240;51.096;5.878;2023-05-21T09:13:20;21.80;-6.00
67358;HTU21D;54240;51.096;5.878;2023-05-21T09:15:48;21.74;-6.00
67358;HTU21D;54240;51.096;5.878;2023-05-21T09:18:16;21.78;-6.00
67358;HTU21D;54240;51.096;5.878;2023-05-21T09:20:48;21.44;-6.00
67358;HTU21D;54240;51.096;5.878;2023-05-21T09:23:16;21.32;-6.00
67358;HTU21D;54240;51.096;5.878;2023-05-21T09:25:46;21.65;-6.00
67358;HTU21D;54240;51.096;5.878;2023-05-21T09:28:18;21.93;-6.00
67358;HTU21D;54240;51.096;5.878;2023-05-21T09:30:46;22.19;-6.00
67358;HTU21D;54240;51.096;5.878;2023-05-21T09:33:31;22.47;-6.00
67358;HTU21D;54240;51.096;5.878;2023-05-21T09:35:58;22.41;-6.00
67358;HTU21D;54240;51.096;5.878;2023-05-21T09:38:25;22.63;-6.00
67358;HTU21D;54240;51.096;5.878;2023-05-21T09:40:54;23.07;-6.00
67358;HTU21D;54240;51.096;5.878;2023-05-21T09:43:24;23.26;-6.00
67358;HTU21D;54240;51.096;5.878;2023-05-21T09:45:54;22.92;-6.00
67358;HTU21D;54240;51.096;5.878;2023-05-21T09:48:38;22.44;-6.00
67358;HTU21D;54240;51.096;5.878;2023-05-21T09:51:18;22.52;-6.00
67358;HTU21D;54240;51.096;5.878;2023-05-21T09:53:52;22.53;-6.00
67358;HTU21D;54240;51.096;5.878;2023-05-21T09:56:26;22.39;-6.00
67358;HTU21D;54240;51.096;5.878;2023-05-21T09:58:57;22.49;-6.00
67358;HTU21D;54240;51.096;5.878;2023-05-21T10:01:26;22.82;-6.00
67358;HTU21D;54240;51.096;5.878;2023-05-21T10:03:55;22.73;-6.00
67358;HTU21D;54240;51.096;5.878;2023-05-21T10:06:25;22.39;-6.00
67358;HTU21D;54240;51.096;5.878;2023-05-21T10:08:54;22.24;-6.00
67358;HTU21D;54240;51.096;5.878;2023-05-21T10:11:25;21.78;-6.00
67358;HTU21D;54240;51.096;5.878;2023-05-21T10:13:57;21.58;-6.00
67358;HTU21D;54240;51.096;5.878;2023-05-21T10:16:25;22.13;-6.00
67358;HTU21D;54240;51.096;5.878;2023-05-21T10:18:53;22.77;-6.00
67358;HTU21D;54240;51.096;5.878;2023-05-21T10:21:23;22.93;-6.00
67358;HTU21D;54240;51.096;5.878;2023-05-21T10:23:52;22.96;-6.00
67358;HTU21D;54240;51.096;5.878;2023-05-21T10:26:18;23.31;-6.00
67358;HTU21D;54240;51.096;5.878;2023-05-21T10:28:48;23.57;-6.00
67358;HTU21D;54240;51.096;5.878;2023-05-21T10:31:15;23.14;-6.00
67358;HTU21D;54240;51.096;5.878;2023-05-21T10:33:42;23.16;-6.00
67358;HTU21D;54240;51.096;5.878;2023-05-21T10:36:09;22.94;-6.00
67358;HTU21D;54240;51.096;5.878;2023-05-21T10:38:37;22.85;-6.00
67358;HTU21D;54240;51.096;5.878;2023-05-21T10:41:05;22.73;-6.00
67358;HTU21D;54240;51.096;5.878;2023-05-21T10:57:21;23.75;-6.00
67358;HTU21D;54240;51.096;5.878;2023-05-21T10:59:52;24.14;-6.00
67358;HTU21D;54240;51.096;5.878;2023-05-21T11:02:19;24.39;-6.00
67358;HTU21D;54240;51.096;5.878;2023-05-21T11:05:00;24.65;-6.00
67358;HTU21D;54240;51.096;5.878;2023-05-21T11:07:56;24.89;-6.00
67358;HTU21D;54240;51.096;5.878;2023-05-21T11:10:36;25.12;-6.00
67358;HTU21D;54240;51.096;5.878;2023-05-21T11:21:16;25.19;-6.00
67358;HTU21D;54240;51.096;5.878;2023-05-21T11:23:52;24.75;-6.00
67358;HTU21D;54240;51.096;5.878;2023-05-21T11:26:21;24.91;-6.00
67358;HTU21D;54240;51.096;5.878;2023-05-21T11:31:33;26.47;-6.00
67358;HTU21D;54240;51.096;5.878;2023-05-21T11:34:42;27.04;-6.00
67358;HTU21D;54240;51.096;5.878;2023-05-21T11:39:44;26.16;-6.00
67358;HTU21D;54240;51.096;5.878;2023-05-21T11:42:10;26.03;-6.00
67358;HTU21D;54240;51.096;5.878;2023-05-21T11:44:44;25.27;-6.00
67358;HTU21D;54240;51.096;5.878;2023-05-21T11:47:12;25.08;-6.00
67358;HTU21D;54240;51.096;5.878;2023-05-21T11:49:40;24.66;-6.00
67358;HTU21D;54240;51.096;5.878;2023-05-21T11:52:08;24.65;-6.00
67358;HTU21D;54240;51.096;5.878;2023-05-21T11:54:43;24.29;-6.00
67358;HTU21D;54240;51.096;5.878;2023-05-21T11:57:17;24.48;-6.00
67358;HTU21D;54240;51.096;5.878;2023-05-21T11:59:45;23.42;-6.00
67358;HTU21D;54240;51.096;5.878;2023-05-21T12:02:15;23.46;-6.00
67358;HTU21D;54240;51.096;5.878;2023-05-21T12:04:43;23.29;-6.00
67358;HTU21D;54240;51.096;5.878;2023-05-21T12:07:10;23.45;-6.00
67358;HTU21D;54240;51.096;5.878;2023-05-21T12:09:45;23.97;-6.00
67358;HTU21D;54240;51.096;5.878;2023-05-21T12:12:15;24.13;-6.00
67358;HTU21D;54240;51.096;5.878;2023-05-21T12:14:47;24.36;-6.00
67358;HTU21D;54240;51.096;5.878;2023-05-21T12:17:19;25.15;-6.00
67358;HTU21D;54240;51.096;5.878;2023-05-21T12:19:48;25.23;-6.00
67358;HTU21D;54240;51.096;5.878;2023-05-21T12:22:17;25.44;-6.00
67358;HTU21D;54240;51.096;5.878;2023-05-21T12:24:45;24.76;-6.00
67358;HTU21D;54240;51.096;5.878;2023-05-21T12:27:12;25.05;-6.00
67358;HTU21D;54240;51.096;5.878;2023-05-21T12:29:47;24.98;-6.00
67358;HTU21D;54240;51.096;5.878;2023-05-21T12:32:14;25.02;-6.00
67358;HTU21D;54240;51.096;5.878;2023-05-21T12:34:49;25.32;-6.00
67358;HTU21D;54240;51.096;5.878;2023-05-21T12:37:23;25.01;-6.00
67358;HTU21D;54240;51.096;5.878;2023-05-21T12:39:54;25.12;-6.00
67358;HTU21D;54240;51.096;5.878;2023-05-21T12:42:28;25.36;-6.00
67358;HTU21D;54240;51.096;5.878;2023-05-21T12:44:56;25.53;-6.00
67358;HTU21D;54240;51.096;5.878;2023-05-21T12:47:24;25.47;-6.00
67358;HTU21D;54240;51.096;5.878;2023-05-21T12:49:55;25.89;-6.00
67358;HTU21D;54240;51.096;5.878;2023-05-21T12:52:23;25.74;-6.00
67358;HTU21D;54240;51.096;5.878;2023-05-21T12:54:51;25.37;-6.00
67358;HTU21D;54240;51.096;5.878;2023-05-21T12:57:35;25.42;-6.00
67358;HTU21D;54240;51.096;5.878;2023-05-21T13:00:08;25.47;-6.00
67358;HTU21D;54240;51.096;5.878;2023-05-21T13:02:39;25.62;-6.00
67358;HTU21D;54240;51.096;5.878;2023-05-21T13:05:14;25.50;-6.00
67358;HTU21D;54240;51.096;5.878;2023-05-21T13:07:44;25.53;-6.00
67358;HTU21D;54240;51.096;5.878;2023-05-21T13:10:16;25.68;-6.00
67358;HTU21D;54240;51.096;5.878;2023-05-21T13:12:43;25.48;-6.00
67358;HTU21D;54240;51.096;5.878;2023-05-21T13:15:09;25.12;-6.00
67358;HTU21D;54240;51.096;5.878;2023-05-21T13:17:35;25.20;-6.00
67358;HTU21D;54240;51.096;5.878;2023-05-21T13:20:12;25.21;-6.00
67358;HTU21D;54240;51.096;5.878;2023-05-21T13:22:44;25.04;-6.00
67358;HTU21D;54240;51.096;5.878;2023-05-21T13:25:21;24.86;-6.00
67358;HTU21D;54240;51.096;5.878;2023-05-21T13:27:50;24.47;-6.00
67358;HTU21D;54240;51.096;5.878;2023-05-21T13:30:17;24.42;-6.00
67358;HTU21D;54240;51.096;5.878;2023-05-21T13:32:43;24.78;-6.00
67358;HTU21D;54240;51.096;5.878;2023-05-21T13:35:10;25.38;-6.00
67358;HTU21D;54240;51.096;5.878;2023-05-21T13:37:40;25.73;-6.00
67358;HTU21D;54240;51.096;5.878;2023-05-21T13:40:12;25.59;-6.00
67358;HTU21D;54240;51.096;5.878;2023-05-21T13:42:42;25.96;-6.00
67358;HTU21D;54240;51.096;5.878;2023-05-21T13:45:13;25.53;-6.00
67358;HTU21D;54240;51.096;5.878;2023-05-21T13:47:40;25.59;-6.00
67358;HTU21D;54240;51.096;5.878;2023-05-21T13:50:07;25.23;-6.00
67358;HTU21D;54240;51.096;5.878;2023-05-21T13:52:34;24.90;-6.00
67358;HTU21D;54240;51.096;5.878;2023-05-21T13:55:00;24.85;-6.00
67358;HTU21D;54240;51.096;5.878;2023-05-21T13:57:26;24.82;-6.00
67358;HTU21D;54240;51.096;5.878;2023-05-21T13:59:56;24.75;-6.00
67358;HTU21D;54240;51.096;5.878;2023-05-21T14:02:22;24.57;-6.00
67358;HTU21D;54240;51.096;5.878;2023-05-21T14:04:48;24.80;-6.00
67358;HTU21D;54240;51.096;5.878;2023-05-21T14:07:14;24.70;-6.00
67358;HTU21D;54240;51.096;5.878;2023-05-21T14:09:40;25.04;-6.00
67358;HTU21D;54240;51.096;5.878;2023-05-21T14:12:07;25.23;-6.00
67358;HTU21D;54240;51.096;5.878;2023-05-21T14:14:34;25.05;-6.00
67358;HTU21D;54240;51.096;5.878;2023-05-21T14:17:00;25.08;-6.00
67358;HTU21D;54240;51.096;5.878;2023-05-21T14:19:26;24.88;-6.00
67358;HTU21D;54240;51.096;5.878;2023-05-21T14:21:52;24.73;-6.00
67358;HTU21D;54240;51.096;5.878;2023-05-21T14:24:19;24.66;-6.00
67358;HTU21D;54240;51.096;5.878;2023-05-21T14:26:45;24.46;-6.00
67358;HTU21D;54240;51.096;5.878;2023-05-21T14:29:11;24.59;-6.00
67358;HTU21D;54240;51.096;5.878;2023-05-21T14:31:37;24.72;-6.00
67358;HTU21D;54240;51.096;5.878;2023-05-21T14:34:04;24.84;-6.00
67358;HTU21D;54240;51.096;5.878;2023-05-21T14:36:32;24.83;-6.00
67358;HTU21D;54240;51.096;5.878;2023-05-21T14:38:58;24.72;-6.00
67358;HTU21D;54240;51.096;5.878;2023-05-21T14:41:25;24.76;-6.00
67358;HTU21D;54240;51.096;5.878;2023-05-21T14:43:52;25.16;-6.00
67358;HTU21D;54240;51.096;5.878;2023-05-21T14:46:18;25.15;-6.00
67358;HTU21D;54240;51.096;5.878;2023-05-21T14:48:44;25.37;-6.00
67358;HTU21D;54240;51.096;5.878;2023-05-21T14:51:12;25.62;-6.00
67358;HTU21D;54240;51.096;5.878;2023-05-21T14:53:38;25.76;-6.00
67358;HTU21D;54240;51.096;5.878;2023-05-21T14:56:06;25.61;-6.00
67358;HTU21D;54240;51.096;5.878;2023-05-21T14:58:32;25.20;-6.00
67358;HTU21D;54240;51.096;5.878;2023-05-21T15:00:59;25.22;-6.00
67358;HTU21D;54240;51.096;5.878;2023-05-21T15:03:25;25.36;-6.00
67358;HTU21D;54240;51.096;5.878;2023-05-21T15:05:51;25.71;-6.00
67358;HTU21D;54240;51.096;5.878;2023-05-21T15:08:20;25.99;-6.00
67358;HTU21D;54240;51.096;5.878;2023-05-21T15:10:46;25.97;-6.00
67358;HTU21D;54240;51.096;5.878;2023-05-21T15:13:12;25.98;-6.00
67358;HTU21D;54240;51.096;5.878;2023-05-21T15:15:38;26.20;-6.00
67358;HTU21D;54240;51.096;5.878;2023-05-21T15:18:08;26.53;-6.00
67358;HTU21D;54240;51.096;5.878;2023-05-21T15:20:35;26.28;-6.00
67358;HTU21D;54240;51.096;5.878;2023-05-21T15:23:01;26.25;-6.00
67358;HTU21D;54240;51.096;5.878;2023-05-21T15:25:27;26.21;-6.00
67358;HTU21D;54240;51.096;5.878;2023-05-21T15:27:53;26.19;-6.00
67358;HTU21D;54240;51.096;5.878;2023-05-21T15:30:19;25.98;-6.00
67358;HTU21D;54240;51.096;5.878;2023-05-21T15:32:46;25.88;-6.00
67358;HTU21D;54240;51.096;5.878;2023-05-21T15:35:13;25.54;-6.00
67358;HTU21D;54240;51.096;5.878;2023-05-21T15:37:39;25.48;-6.00
67358;HTU21D;54240;51.096;5.878;2023-05-21T15:40:10;25.65;-6.00
67358;HTU21D;54240;51.096;5.878;2023-05-21T15:42:43;26.02;-6.00
67358;HTU21D;54240;51.096;5.878;2023-05-21T15:45:09;26.24;-6.00
67358;HTU21D;54240;51.096;5.878;2023-05-21T15:47:36;26.30;-6.00
67358;HTU21D;54240;51.096;5.878;2023-05-21T15:50:08;26.52;-6.00
67358;HTU21D;54240;51.096;5.878;2023-05-21T15:52:34;26.75;-6.00
67358;HTU21D;54240;51.096;5.878;2023-05-21T15:55:00;26.47;-6.00